Council Hill, Oklahoma
Current Conditions -  °F | °C
As of 9:53 PM on Tuesday 25 Nov 2014 (Local Time) from KMKO Reporting Station
Clear Clear  
Wind Chill: 32°   Ceiling: Unl
Heat Index: 37°   Visibility: 10mi
Dew Point: 27°   Wind: 7mph
Humidity: 67%   Direction: 150°SSE
Pressure: 30.13"   Gusts: NA
Location:  35.56°N, 95.65°W
Report Text: KMKO 260353Z AUTO 15006KT 10SM CLR 03/M03 A3013 RMK AO2 SLP206 T00281028
Loading
Personal Weather Stations






























Interactive Weather Map New forecast layout! Learn more

10-Day Weather Forecast

Advertisements
Track Severe Weather on mobile